sensor_id;sensor_type;location;lat;lon;timestamp;temperature;humidity
74822;DHT22;63353;48.702;8.884;2023-05-23T00:00:26;15.20;99.90
74822;DHT22;63353;48.702;8.884;2023-05-23T00:02:53;15.30;99.90
74822;DHT22;63353;48.702;8.884;2023-05-23T00:05:18;15.30;99.90
74822;DHT22;63353;48.702;8.884;2023-05-23T00:07:50;15.30;99.90
74822;DHT22;63353;48.702;8.884;2023-05-23T00:10:16;15.30;99.90
74822;DHT22;63353;48.702;8.884;2023-05-23T00:12:41;15.30;99.90
74822;DHT22;63353;48.702;8.884;2023-05-23T00:15:13;15.30;99.90
74822;DHT22;63353;48.702;8.884;2023-05-23T00:17:39;15.40;99.90
74822;DHT22;63353;48.702;8.884;2023-05-23T00:20:07;15.30;99.90
74822;DHT22;63353;48.702;8.884;2023-05-23T00:22:38;15.30;99.90
74822;DHT22;63353;48.702;8.884;2023-05-23T00:25:08;15.30;99.90
74822;DHT22;63353;48.702;8.884;2023-05-23T00:27:34;15.30;99.90
74822;DHT22;63353;48.702;8.884;2023-05-23T00:30:00;15.30;99.90
74822;DHT22;63353;48.702;8.884;2023-05-23T00:32:33;15.30;99.90
74822;DHT22;63353;48.702;8.884;2023-05-23T00:34:59;15.30;99.90
74822;DHT22;63353;48.702;8.884;2023-05-23T00:37:28;15.30;99.90
74822;DHT22;63353;48.702;8.884;2023-05-23T00:39:53;15.20;99.90
74822;DHT22;63353;48.702;8.884;2023-05-23T00:42:25;15.20;99.90
74822;DHT22;63353;48.702;8.884;2023-05-23T00:45:06;15.20;99.90
74822;DHT22;63353;48.702;8.884;2023-05-23T00:47:32;15.20;99.90
74822;DHT22;63353;48.702;8.884;2023-05-23T00:49:58;15.10;99.90
74822;DHT22;63353;48.702;8.884;2023-05-23T00:52:26;15.10;99.90
74822;DHT22;63353;48.702;8.884;2023-05-23T00:54:58;15.10;99.90
74822;DHT22;63353;48.702;8.884;2023-05-23T00:57:24;15.10;99.90
74822;DHT22;63353;48.702;8.884;2023-05-23T00:59:50;15.20;99.90
74822;DHT22;63353;48.702;8.884;2023-05-23T01:02:16;15.20;99.90
74822;DHT22;63353;48.702;8.884;2023-05-23T01:04:49;15.20;99.90
74822;DHT22;63353;48.702;8.884;2023-05-23T01:07:21;15.30;99.90
74822;DHT22;63353;48.702;8.884;2023-05-23T01:09:50;15.30;99.90
74822;DHT22;63353;48.702;8.884;2023-05-23T01:12:28;15.40;99.90
74822;DHT22;63353;48.702;8.884;2023-05-23T01:15:08;15.40;99.90
74822;DHT22;63353;48.702;8.884;2023-05-23T01:17:45;15.40;99.90
74822;DHT22;63353;48.702;8.884;2023-05-23T01:20:31;15.40;99.90
74822;DHT22;63353;48.702;8.884;2023-05-23T01:28:54;15.50;99.90
74822;DHT22;63353;48.702;8.884;2023-05-23T01:31:21;15.50;99.90
74822;DHT22;63353;48.702;8.884;2023-05-23T01:34:00;15.50;99.90
74822;DHT22;63353;48.702;8.884;2023-05-23T01:36:26;15.50;99.90
74822;DHT22;63353;48.702;8.884;2023-05-23T01:38:55;15.50;99.90
74822;DHT22;63353;48.702;8.884;2023-05-23T01:41:23;15.50;99.90
74822;DHT22;63353;48.702;8.884;2023-05-23T01:43:50;15.50;99.90
74822;DHT22;63353;48.702;8.884;2023-05-23T01:46:16;15.50;99.90
74822;DHT22;63353;48.702;8.884;2023-05-23T01:48:48;15.50;99.90
74822;DHT22;63353;48.702;8.884;2023-05-23T01:51:21;15.50;99.90
74822;DHT22;63353;48.702;8.884;2023-05-23T01:53:50;15.50;99.90
74822;DHT22;63353;48.702;8.884;2023-05-23T01:56:16;15.50;99.90
74822;DHT22;63353;48.702;8.884;2023-05-23T01:58:42;15.50;99.90
74822;DHT22;63353;48.702;8.884;2023-05-23T02:01:11;15.50;99.90
74822;DHT22;63353;48.702;8.884;2023-05-23T02:03:37;15.50;99.90
74822;DHT22;63353;48.702;8.884;2023-05-23T02:06:02;15.50;99.90
74822;DHT22;63353;48.702;8.884;2023-05-23T02:08:28;15.40;99.90
74822;DHT22;63353;48.702;8.884;2023-05-23T02:10:54;15.40;99.90
74822;DHT22;63353;48.702;8.884;2023-05-23T02:13:28;15.40;99.90
74822;DHT22;63353;48.702;8.884;2023-05-23T02:15:54;15.40;99.90
74822;DHT22;63353;48.702;8.884;2023-05-23T02:18:20;15.30;99.90
74822;DHT22;63353;48.702;8.884;2023-05-23T02:20:46;15.30;99.90
74822;DHT22;63353;48.702;8.884;2023-05-23T02:23:11;15.30;99.90
74822;DHT22;63353;48.702;8.884;2023-05-23T02:25:37;15.30;99.90
74822;DHT22;63353;48.702;8.884;2023-05-23T02:28:03;15.40;99.90
74822;DHT22;63353;48.702;8.884;2023-05-23T02:30:31;15.30;99.90
74822;DHT22;63353;48.702;8.884;2023-05-23T02:33:07;15.30;99.90
74822;DHT22;63353;48.702;8.884;2023-05-23T02:35:35;15.30;99.90
74822;DHT22;63353;48.702;8.884;2023-05-23T02:38:01;15.40;99.90
74822;DHT22;63353;48.702;8.884;2023-05-23T02:40:27;15.30;99.90
74822;DHT22;63353;48.702;8.884;2023-05-23T02:42:55;15.30;99.90
74822;DHT22;63353;48.702;8.884;2023-05-23T02:45:24;15.30;99.90
74822;DHT22;63353;48.702;8.884;2023-05-23T02:47:53;15.30;99.90
74822;DHT22;63353;48.702;8.884;2023-05-23T02:50:19;15.30;99.90
74822;DHT22;63353;48.702;8.884;2023-05-23T02:52:44;15.30;99.90
74822;DHT22;63353;48.702;8.884;2023-05-23T02:55:10;15.30;99.90
74822;DHT22;63353;48.702;8.884;2023-05-23T02:57:36;15.30;99.90
74822;DHT22;63353;48.702;8.884;2023-05-23T03:00:08;15.40;99.90
74822;DHT22;63353;48.702;8.884;2023-05-23T03:02:37;15.30;99.90
74822;DHT22;63353;48.702;8.884;2023-05-23T03:05:03;15.30;99.90
74822;DHT22;63353;48.702;8.884;2023-05-23T03:07:30;15.30;99.90
74822;DHT22;63353;48.702;8.884;2023-05-23T03:10:04;15.40;99.90
74822;DHT22;63353;48.702;8.884;2023-05-23T03:12:30;15.40;99.90
74822;DHT22;63353;48.702;8.884;2023-05-23T03:14:56;15.40;99.90
74822;DHT22;63353;48.702;8.884;2023-05-23T03:17:24;15.40;99.90
74822;DHT22;63353;48.702;8.884;2023-05-23T03:19:53;15.40;99.90
74822;DHT22;63353;48.702;8.884;2023-05-23T03:22:19;15.40;99.90
74822;DHT22;63353;48.702;8.884;2023-05-23T03:24:44;15.40;99.90
74822;DHT22;63353;48.702;8.884;2023-05-23T03:27:10;15.30;99.90
74822;DHT22;63353;48.702;8.884;2023-05-23T03:29:39;15.30;99.90
74822;DHT22;63353;48.702;8.884;2023-05-23T03:32:05;15.30;99.90
74822;DHT22;63353;48.702;8.884;2023-05-23T03:34:31;15.30;99.90
74822;DHT22;63353;48.702;8.884;2023-05-23T03:36:57;15.30;99.90
74822;DHT22;63353;48.702;8.884;2023-05-23T03:39:23;15.30;99.90
74822;DHT22;63353;48.702;8.884;2023-05-23T03:41:49;15.30;99.90
74822;DHT22;63353;48.702;8.884;2023-05-23T03:44:15;15.30;99.90
74822;DHT22;63353;48.702;8.884;2023-05-23T03:46:44;15.20;99.90
74822;DHT22;63353;48.702;8.884;2023-05-23T03:49:09;15.20;99.90
74822;DHT22;63353;48.702;8.884;2023-05-23T03:51:35;15.30;99.90
74822;DHT22;63353;48.702;8.884;2023-05-23T03:54:01;15.30;99.90
74822;DHT22;63353;48.702;8.884;2023-05-23T03:56:26;15.30;99.90
74822;DHT22;63353;48.702;8.884;2023-05-23T03:58:52;15.20;99.90
74822;DHT22;63353;48.702;8.884;2023-05-23T04:01:17;15.20;99.90
74822;DHT22;63353;48.702;8.884;2023-05-23T04:03:43;15.30;99.90
74822;DHT22;63353;48.702;8.884;2023-05-23T04:06:12;15.20;99.90
74822;DHT22;63353;48.702;8.884;2023-05-23T04:08:37;15.30;99.90
74822;DHT22;63353;48.702;8.884;2023-05-23T04:11:06;15.30;99.90
74822;DHT22;63353;48.702;8.884;2023-05-23T04:13:32;15.30;99.90
74822;DHT22;63353;48.702;8.884;2023-05-23T04:16:00;15.30;99.90
74822;DHT22;63353;48.702;8.884;2023-05-23T04:18:26;15.30;99.90
74822;DHT22;63353;48.702;8.884;2023-05-23T04:20:55;15.30;99.90
74822;DHT22;63353;48.702;8.884;2023-05-23T04:23:21;15.30;99.90
74822;DHT22;63353;48.702;8.884;2023-05-23T04:25:46;15.30;99.90
74822;DHT22;63353;48.702;8.884;2023-05-23T04:28:12;15.20;99.90
74822;DHT22;63353;48.702;8.884;2023-05-23T04:30:41;15.20;99.90
74822;DHT22;63353;48.702;8.884;2023-05-23T04:33:07;15.20;99.90
74822;DHT22;63353;48.702;8.884;2023-05-23T04:35:34;15.30;99.90
74822;DHT22;63353;48.702;8.884;2023-05-23T04:38:03;15.20;99.90
74822;DHT22;63353;48.702;8.884;2023-05-23T04:40:29;15.20;99.90
74822;DHT22;63353;48.702;8.884;2023-05-23T04:42:56;15.20;99.90
74822;DHT22;63353;48.702;8.884;2023-05-23T04:45:22;15.20;99.90
74822;DHT22;63353;48.702;8.884;2023-05-23T04:47:48;15.10;99.90
74822;DHT22;63353;48.702;8.884;2023-05-23T04:50:13;15.10;99.90
74822;DHT22;63353;48.702;8.884;2023-05-23T04:52:40;15.00;99.90
74822;DHT22;63353;48.702;8.884;2023-05-23T04:55:08;15.10;99.90
74822;DHT22;63353;48.702;8.884;2023-05-23T04:57:34;15.00;99.90
74822;DHT22;63353;48.702;8.884;2023-05-23T05:00:00;15.10;99.90
74822;DHT22;63353;48.702;8.884;2023-05-23T05:02:32;15.10;99.90
74822;DHT22;63353;48.702;8.884;2023-05-23T05:04:59;15.00;99.90
74822;DHT22;63353;48.702;8.884;2023-05-23T05:07:34;15.00;99.90
74822;DHT22;63353;48.702;8.884;2023-05-23T05:10:00;15.00;99.90
74822;DHT22;63353;48.702;8.884;2023-05-23T05:12:26;15.00;99.90
74822;DHT22;63353;48.702;8.884;2023-05-23T05:14:52;14.90;99.90
74822;DHT22;63353;48.702;8.884;2023-05-23T05:17:17;15.00;99.90
74822;DHT22;63353;48.702;8.884;2023-05-23T05:19:44;15.00;99.90
74822;DHT22;63353;48.702;8.884;2023-05-23T05:22:10;14.90;99.90
74822;DHT22;63353;48.702;8.884;2023-05-23T05:24:36;14.80;99.90
74822;DHT22;63353;48.702;8.884;2023-05-23T05:27:02;14.90;99.90
74822;DHT22;63353;48.702;8.884;2023-05-23T05:29:35;14.90;99.90
74822;DHT22;63353;48.702;8.884;2023-05-23T05:32:01;14.90;99.90
74822;DHT22;63353;48.702;8.884;2023-05-23T05:34:30;14.90;99.90
74822;DHT22;63353;48.702;8.884;2023-05-23T05:36:56;14.80;99.90
74822;DHT22;63353;48.702;8.884;2023-05-23T05:39:23;14.90;99.90
74822;DHT22;63353;48.702;8.884;2023-05-23T05:41:50;14.90;99.90
74822;DHT22;63353;48.702;8.884;2023-05-23T05:44:15;14.90;99.90
74822;DHT22;63353;48.702;8.884;2023-05-23T05:46:41;15.00;99.90
74822;DHT22;63353;48.702;8.884;2023-05-23T05:49:07;14.90;99.90
74822;DHT22;63353;48.702;8.884;2023-05-23T05:51:32;14.80;99.90
74822;DHT22;63353;48.702;8.884;2023-05-23T05:53:58;14.80;99.90
74822;DHT22;63353;48.702;8.884;2023-05-23T05:56:24;14.80;99.90
74822;DHT22;63353;48.702;8.884;2023-05-23T05:58:50;14.90;99.90
74822;DHT22;63353;48.702;8.884;2023-05-23T06:01:16;14.90;99.90
74822;DHT22;63353;48.702;8.884;2023-05-23T06:03:41;14.90;99.90
74822;DHT22;63353;48.702;8.884;2023-05-23T06:06:07;15.00;99.90
74822;DHT22;63353;48.702;8.884;2023-05-23T06:08:34;14.90;99.90
74822;DHT22;63353;48.702;8.884;2023-05-23T06:11:00;15.00;99.90
74822;DHT22;63353;48.702;8.884;2023-05-23T06:13:25;15.10;99.90
74822;DHT22;63353;48.702;8.884;2023-05-23T06:15:51;15.20;99.90
74822;DHT22;63353;48.702;8.884;2023-05-23T06:18:16;15.10;99.90
74822;DHT22;63353;48.702;8.884;2023-05-23T06:20:45;15.10;99.90
74822;DHT22;63353;48.702;8.884;2023-05-23T06:23:11;15.10;99.90
74822;DHT22;63353;48.702;8.884;2023-05-23T06:25:36;15.20;99.90
74822;DHT22;63353;48.702;8.884;2023-05-23T06:28:02;15.20;99.90
74822;DHT22;63353;48.702;8.884;2023-05-23T06:30:28;15.20;99.90
74822;DHT22;63353;48.702;8.884;2023-05-23T06:32:53;15.20;99.90
74822;DHT22;63353;48.702;8.884;2023-05-23T06:35:25;15.20;99.90
74822;DHT22;63353;48.702;8.884;2023-05-23T06:37:54;15.20;99.90
74822;DHT22;63353;48.702;8.884;2023-05-23T06:40:28;15.20;99.90
74822;DHT22;63353;48.702;8.884;2023-05-23T06:42:54;15.30;99.90
74822;DHT22;63353;48.702;8.884;2023-05-23T06:45:20;15.30;99.90
74822;DHT22;63353;48.702;8.884;2023-05-23T06:47:45;15.30;99.90
74822;DHT22;63353;48.702;8.884;2023-05-23T06:50:16;15.30;99.90
74822;DHT22;63353;48.702;8.884;2023-05-23T06:52:50;15.30;99.90
74822;DHT22;63353;48.702;8.884;2023-05-23T06:55:16;15.30;99.90
74822;DHT22;63353;48.702;8.884;2023-05-23T06:57:43;15.30;99.90
74822;DHT22;63353;48.702;8.884;2023-05-23T07:00:10;15.30;99.90
74822;DHT22;63353;48.702;8.884;2023-05-23T07:02:49;15.40;99.90
74822;DHT22;63353;48.702;8.884;2023-05-23T07:05:18;15.40;99.90
74822;DHT22;63353;48.702;8.884;2023-05-23T07:07:44;15.40;99.90
74822;DHT22;63353;48.702;8.884;2023-05-23T07:10:09;15.20;99.90
74822;DHT22;63353;48.702;8.884;2023-05-23T07:12:35;15.10;99.90
74822;DHT22;63353;48.702;8.884;2023-05-23T07:15:07;15.00;99.90
74822;DHT22;63353;48.702;8.884;2023-05-23T07:17:32;15.00;99.90
74822;DHT22;63353;48.702;8.884;2023-05-23T07:19:58;15.00;99.90
74822;DHT22;63353;48.702;8.884;2023-05-23T07:22:32;15.00;99.90
74822;DHT22;63353;48.702;8.884;2023-05-23T07:25:01;15.00;99.90
74822;DHT22;63353;48.702;8.884;2023-05-23T07:27:29;14.80;99.90
74822;DHT22;63353;48.702;8.884;2023-05-23T07:29:58;14.60;99.90
74822;DHT22;63353;48.702;8.884;2023-05-23T07:32:26;14.60;99.90
74822;DHT22;63353;48.702;8.884;2023-05-23T07:34:52;14.50;99.90
74822;DHT22;63353;48.702;8.884;2023-05-23T07:37:17;14.60;99.90
74822;DHT22;63353;48.702;8.884;2023-05-23T07:39:49;14.50;99.90
74822;DHT22;63353;48.702;8.884;2023-05-23T07:42:24;14.60;99.90
74822;DHT22;63353;48.702;8.884;2023-05-23T07:44:54;14.50;99.90
74822;DHT22;63353;48.702;8.884;2023-05-23T07:47:31;14.60;99.90
74822;DHT22;63353;48.702;8.884;2023-05-23T07:50:00;14.70;99.90
74822;DHT22;63353;48.702;8.884;2023-05-23T07:52:28;14.90;99.90
74822;DHT22;63353;48.702;8.884;2023-05-23T07:54:54;15.00;99.90
74822;DHT22;63353;48.702;8.884;2023-05-23T07:57:24;15.00;99.90
74822;DHT22;63353;48.702;8.884;2023-05-23T07:59:53;15.10;99.90
74822;DHT22;63353;48.702;8.884;2023-05-23T08:02:19;15.10;99.90
74822;DHT22;63353;48.702;8.884;2023-05-23T08:04:54;15.00;99.90
74822;DHT22;63353;48.702;8.884;2023-05-23T08:07:21;15.00;99.90
74822;DHT22;63353;48.702;8.884;2023-05-23T08:09:47;15.20;99.90
74822;DHT22;63353;48.702;8.884;2023-05-23T08:12:13;15.30;99.90
74822;DHT22;63353;48.702;8.884;2023-05-23T08:14:38;15.20;99.90
74822;DHT22;63353;48.702;8.884;2023-05-23T08:17:07;15.50;99.90
74822;DHT22;63353;48.702;8.884;2023-05-23T08:19:39;15.70;99.90
74822;DHT22;63353;48.702;8.884;2023-05-23T08:22:04;15.70;99.90
74822;DHT22;63353;48.702;8.884;2023-05-23T08:24:30;15.90;99.90
74822;DHT22;63353;48.702;8.884;2023-05-23T08:26:59;15.80;99.90
74822;DHT22;63353;48.702;8.884;2023-05-23T08:29:25;15.50;99.90
74822;DHT22;63353;48.702;8.884;2023-05-23T08:31:59;15.80;99.90
74822;DHT22;63353;48.702;8.884;2023-05-23T08:34:32;16.20;99.90
74822;DHT22;63353;48.702;8.884;2023-05-23T08:36:58;16.00;99.90
74822;DHT22;63353;48.702;8.884;2023-05-23T08:39:26;16.10;99.90
74822;DHT22;63353;48.702;8.884;2023-05-23T08:41:55;16.40;99.90
74822;DHT22;63353;48.702;8.884;2023-05-23T08:44:23;16.70;99.90
74822;DHT22;63353;48.702;8.884;2023-05-23T08:46:52;16.70;99.90
74822;DHT22;63353;48.702;8.884;2023-05-23T08:49:19;16.60;99.90
74822;DHT22;63353;48.702;8.884;2023-05-23T08:51:58;16.50;99.90
74822;DHT22;63353;48.702;8.884;2023-05-23T08:54:25;16.50;99.90
74822;DHT22;63353;48.702;8.884;2023-05-23T08:56:56;16.20;99.90
74822;DHT22;63353;48.702;8.884;2023-05-23T08:59:25;16.10;99.90
74822;DHT22;63353;48.702;8.884;2023-05-23T09:01:54;16.30;99.90
74822;DHT22;63353;48.702;8.884;2023-05-23T09:04:21;16.10;99.90
74822;DHT22;63353;48.702;8.884;2023-05-23T09:06:46;16.00;99.90
74822;DHT22;63353;48.702;8.884;2023-05-23T09:09:12;16.40;99.90
74822;DHT22;63353;48.702;8.884;2023-05-23T09:11:37;16.00;99.90
74822;DHT22;63353;48.702;8.884;2023-05-23T09:14:04;16.00;99.90
74822;DHT22;63353;48.702;8.884;2023-05-23T09:16:33;15.80;99.90
74822;DHT22;63353;48.702;8.884;2023-05-23T09:19:14;15.80;99.90
74822;DHT22;63353;48.702;8.884;2023-05-23T09:21:45;15.80;99.90
74822;DHT22;63353;48.702;8.884;2023-05-23T09:24:11;15.50;99.90
74822;DHT22;63353;48.702;8.884;2023-05-23T09:26:37;15.70;99.90
74822;DHT22;63353;48.702;8.884;2023-05-23T09:29:05;15.70;99.90
74822;DHT22;63353;48.702;8.884;2023-05-23T09:31:31;15.80;99.90
74822;DHT22;63353;48.702;8.884;2023-05-23T09:33:57;15.70;99.90
74822;DHT22;63353;48.702;8.884;2023-05-23T09:36:27;15.80;99.90
74822;DHT22;63353;48.702;8.884;2023-05-23T09:39:02;16.00;99.90
74822;DHT22;63353;48.702;8.884;2023-05-23T09:41:35;16.40;99.90
74822;DHT22;63353;48.702;8.884;2023-05-23T09:44:08;16.90;99.90
74822;DHT22;63353;48.702;8.884;2023-05-23T09:46:35;17.10;99.90
74822;DHT22;63353;48.702;8.884;2023-05-23T09:49:01;17.10;99.90
74822;DHT22;63353;48.702;8.884;2023-05-23T09:51:28;17.10;99.90
74822;DHT22;63353;48.702;8.884;2023-05-23T09:53:53;17.10;99.90
74822;DHT22;63353;48.702;8.884;2023-05-23T09:56:22;16.90;99.90
74822;DHT22;63353;48.702;8.884;2023-05-23T09:58:51;16.80;99.90
74822;DHT22;63353;48.702;8.884;2023-05-23T10:01:18;16.70;99.90
74822;DHT22;63353;48.702;8.884;2023-05-23T10:03:57;16.50;99.90
74822;DHT22;63353;48.702;8.884;2023-05-23T10:06:34;16.70;99.90
74822;DHT22;63353;48.702;8.884;2023-05-23T10:09:04;16.60;99.90
74822;DHT22;63353;48.702;8.884;2023-05-23T10:14:01;17.40;99.90
74822;DHT22;63353;48.702;8.884;2023-05-23T10:16:45;17.40;99.90
74822;DHT22;63353;48.702;8.884;2023-05-23T10:19:20;17.60;99.90
74822;DHT22;63353;48.702;8.884;2023-05-23T10:21:59;17.70;99.90
74822;DHT22;63353;48.702;8.884;2023-05-23T10:24:25;17.60;99.90
74822;DHT22;63353;48.702;8.884;2023-05-23T10:26:52;17.30;99.90
74822;DHT22;63353;48.702;8.884;2023-05-23T10:29:22;17.40;99.90
74822;DHT22;63353;48.702;8.884;2023-05-23T10:31:49;17.80;99.90
74822;DHT22;63353;48.702;8.884;2023-05-23T10:36:55;18.60;99.90
74822;DHT22;63353;48.702;8.884;2023-05-23T10:42:35;19.60;99.90
74822;DHT22;63353;48.702;8.884;2023-05-23T10:47:45;19.10;99.90
74822;DHT22;63353;48.702;8.884;2023-05-23T10:50:15;18.90;99.90
74822;DHT22;63353;48.702;8.884;2023-05-23T10:52:41;19.10;99.90
74822;DHT22;63353;48.702;8.884;2023-05-23T10:55:14;19.40;99.90
74822;DHT22;63353;48.702;8.884;2023-05-23T10:57:43;19.70;99.90
74822;DHT22;63353;48.702;8.884;2023-05-23T11:00:16;19.50;99.90
74822;DHT22;63353;48.702;8.884;2023-05-23T11:02:58;19.30;99.90
74822;DHT22;63353;48.702;8.884;2023-05-23T11:05:28;19.00;99.90
74822;DHT22;63353;48.702;8.884;2023-05-23T11:08:12;18.00;99.90
74822;DHT22;63353;48.702;8.884;2023-05-23T11:11:06;17.90;99.90
74822;DHT22;63353;48.702;8.884;2023-05-23T11:16:43;17.40;99.90
74822;DHT22;63353;48.702;8.884;2023-05-23T11:19:23;17.50;99.90
74822;DHT22;63353;48.702;8.884;2023-05-23T11:22:08;17.90;99.90
74822;DHT22;63353;48.702;8.884;2023-05-23T11:24:56;18.30;99.90
74822;DHT22;63353;48.702;8.884;2023-05-23T11:27:33;18.50;99.90
74822;DHT22;63353;48.702;8.884;2023-05-23T11:30:17;18.80;99.90
74822;DHT22;63353;48.702;8.884;2023-05-23T11:32:52;19.10;99.90
74822;DHT22;63353;48.702;8.884;2023-05-23T11:35:22;19.00;99.90
74822;DHT22;63353;48.702;8.884;2023-05-23T11:37:48;18.50;99.90
74822;DHT22;63353;48.702;8.884;2023-05-23T11:40:33;18.60;99.90
74822;DHT22;63353;48.702;8.884;2023-05-23T11:43:01;17.70;99.90
74822;DHT22;63353;48.702;8.884;2023-05-23T11:45:34;18.00;99.90
74822;DHT22;63353;48.702;8.884;2023-05-23T11:48:11;18.70;99.90
74822;DHT22;63353;48.702;8.884;2023-05-23T11:51:03;18.70;99.90
74822;DHT22;63353;48.702;8.884;2023-05-23T11:53:37;18.90;99.90
74822;DHT22;63353;48.702;8.884;2023-05-23T11:56:03;18.90;99.90
74822;DHT22;63353;48.702;8.884;2023-05-23T11:58:32;19.00;99.90
74822;DHT22;63353;48.702;8.884;2023-05-23T12:01:06;19.30;99.90
74822;DHT22;63353;48.702;8.884;2023-05-23T12:03:33;19.60;99.90
74822;DHT22;63353;48.702;8.884;2023-05-23T12:05:59;19.60;99.90
74822;DHT22;63353;48.702;8.884;2023-05-23T12:08:26;18.80;99.90
74822;DHT22;63353;48.702;8.884;2023-05-23T12:10:55;18.60;99.90
74822;DHT22;63353;48.702;8.884;2023-05-23T12:13:25;17.90;99.90
74822;DHT22;63353;48.702;8.884;2023-05-23T12:16:01;17.60;99.90
74822;DHT22;63353;48.702;8.884;2023-05-23T12:18:28;17.90;99.90
74822;DHT22;63353;48.702;8.884;2023-05-23T12:20:54;17.70;99.90
74822;DHT22;63353;48.702;8.884;2023-05-23T12:23:29;18.10;99.90
74822;DHT22;63353;48.702;8.884;2023-05-23T12:25:55;19.10;99.90
74822;DHT22;63353;48.702;8.884;2023-05-23T12:28:53;19.90;99.90
74822;DHT22;63353;48.702;8.884;2023-05-23T12:31:21;20.40;99.90
74822;DHT22;63353;48.702;8.884;2023-05-23T12:33:48;21.20;99.90
74822;DHT22;63353;48.702;8.884;2023-05-23T12:36:15;21.30;99.90
74822;DHT22;63353;48.702;8.884;2023-05-23T12:38:47;21.30;99.90
74822;DHT22;63353;48.702;8.884;2023-05-23T12:41:19;21.50;99.90
74822;DHT22;63353;48.702;8.884;2023-05-23T12:43:52;20.90;99.90
74822;DHT22;63353;48.702;8.884;2023-05-23T12:46:19;20.10;99.90
74822;DHT22;63353;48.702;8.884;2023-05-23T12:48:45;19.60;99.90
74822;DHT22;63353;48.702;8.884;2023-05-23T12:51:15;20.20;99.90
74822;DHT22;63353;48.702;8.884;2023-05-23T12:53:43;20.40;99.90
74822;DHT22;63353;48.702;8.884;2023-05-23T12:56:09;20.30;99.90
74822;DHT22;63353;48.702;8.884;2023-05-23T12:58:35;19.60;99.90
74822;DHT22;63353;48.702;8.884;2023-05-23T13:01:01;19.50;99.90
74822;DHT22;63353;48.702;8.884;2023-05-23T13:03:28;20.20;99.90
74822;DHT22;63353;48.702;8.884;2023-05-23T13:06:01;20.40;99.90
74822;DHT22;63353;48.702;8.884;2023-05-23T13:08:36;20.90;99.90
74822;DHT22;63353;48.702;8.884;2023-05-23T13:11:02;20.40;99.90
74822;DHT22;63353;48.702;8.884;2023-05-23T13:13:28;20.70;99.90
74822;DHT22;63353;48.702;8.884;2023-05-23T13:15:57;21.50;99.90
74822;DHT22;63353;48.702;8.884;2023-05-23T13:18:25;21.60;99.90
74822;DHT22;63353;48.702;8.884;2023-05-23T13:21:04;21.40;99.90
74822;DHT22;63353;48.702;8.884;2023-05-23T13:23:29;21.50;99.90
74822;DHT22;63353;48.702;8.884;2023-05-23T13:25:58;20.80;99.90
74822;DHT22;63353;48.702;8.884;2023-05-23T13:28:24;20.70;99.90
74822;DHT22;63353;48.702;8.884;2023-05-23T13:30:50;20.50;99.90
74822;DHT22;63353;48.702;8.884;2023-05-23T13:33:15;19.40;99.90
74822;DHT22;63353;48.702;8.884;2023-05-23T13:35:41;19.50;99.90
74822;DHT22;63353;48.702;8.884;2023-05-23T13:38:13;19.30;99.90
74822;DHT22;63353;48.702;8.884;2023-05-23T13:40:39;19.10;99.90
74822;DHT22;63353;48.702;8.884;2023-05-23T13:43:10;19.00;99.90
74822;DHT22;63353;48.702;8.884;2023-05-23T13:45:36;18.90;99.90
74822;DHT22;63353;48.702;8.884;2023-05-23T13:48:02;18.90;99.90
74822;DHT22;63353;48.702;8.884;2023-05-23T13:50:27;19.10;99.90
74822;DHT22;63353;48.702;8.884;2023-05-23T13:52:53;18.40;99.90
74822;DHT22;63353;48.702;8.884;2023-05-23T13:55:24;18.30;99.90
74822;DHT22;63353;48.702;8.884;2023-05-23T13:57:53;18.00;99.90
74822;DHT22;63353;48.702;8.884;2023-05-23T14:00:19;18.10;99.90
74822;DHT22;63353;48.702;8.884;2023-05-23T14:02:44;18.00;99.90
74822;DHT22;63353;48.702;8.884;2023-05-23T14:05:10;18.30;99.90
74822;DHT22;63353;48.702;8.884;2023-05-23T14:07:39;18.70;99.90
74822;DHT22;63353;48.702;8.884;2023-05-23T14:10:06;18.50;99.90
74822;DHT22;63353;48.702;8.884;2023-05-23T14:12:33;18.50;99.90
74822;DHT22;63353;48.702;8.884;2023-05-23T14:14:59;18.70;99.90
74822;DHT22;63353;48.702;8.884;2023-05-23T14:17:31;19.00;99.90
74822;DHT22;63353;48.702;8.884;2023-05-23T14:19:57;18.90;99.90
74822;DHT22;63353;48.702;8.884;2023-05-23T14:22:24;19.10;99.90
74822;DHT22;63353;48.702;8.884;2023-05-23T14:24:49;19.40;99.90
74822;DHT22;63353;48.702;8.884;2023-05-23T14:27:18;20.10;99.90
74822;DHT22;63353;48.702;8.884;2023-05-23T14:29:44;20.80;99.90
74822;DHT22;63353;48.702;8.884;2023-05-23T14:32:11;21.40;99.90
74822;DHT22;63353;48.702;8.884;2023-05-23T14:34:40;21.30;99.90
74822;DHT22;63353;48.702;8.884;2023-05-23T14:37:09;21.70;99.90
74822;DHT22;63353;48.702;8.884;2023-05-23T14:39:38;23.70;99.90
74822;DHT22;63353;48.702;8.884;2023-05-23T14:42:03;24.70;99.90
74822;DHT22;63353;48.702;8.884;2023-05-23T14:44:29;25.50;99.90
74822;DHT22;63353;48.702;8.884;2023-05-23T14:46:55;24.00;99.90
74822;DHT22;63353;48.702;8.884;2023-05-23T14:49:20;23.50;99.90
74822;DHT22;63353;48.702;8.884;2023-05-23T14:51:46;22.00;99.90
74822;DHT22;63353;48.702;8.884;2023-05-23T14:54:12;21.60;99.90
74822;DHT22;63353;48.702;8.884;2023-05-23T14:56:37;21.20;99.90
74822;DHT22;63353;48.702;8.884;2023-05-23T14:59:05;21.40;99.90
74822;DHT22;63353;48.702;8.884;2023-05-23T15:01:31;21.00;99.90
74822;DHT22;63353;48.702;8.884;2023-05-23T15:03:57;20.20;99.90
74822;DHT22;63353;48.702;8.884;2023-05-23T15:06:23;19.50;99.90
74822;DHT22;63353;48.702;8.884;2023-05-23T15:08:48;19.70;99.90
74822;DHT22;63353;48.702;8.884;2023-05-23T15:11:14;19.90;99.90
74822;DHT22;63353;48.702;8.884;2023-05-23T15:13:40;21.00;99.90
74822;DHT22;63353;48.702;8.884;2023-05-23T15:16:05;22.40;99.90
74822;DHT22;63353;48.702;8.884;2023-05-23T15:18:31;23.20;99.90
74822;DHT22;63353;48.702;8.884;2023-05-23T15:20:58;23.70;99.90
74822;DHT22;63353;48.702;8.884;2023-05-23T15:23:23;23.90;99.90
74822;DHT22;63353;48.702;8.884;2023-05-23T15:25:49;24.80;99.90
74822;DHT22;63353;48.702;8.884;2023-05-23T15:28:15;26.00;99.90
74822;DHT22;63353;48.702;8.884;2023-05-23T15:30:42;26.80;99.90
74822;DHT22;63353;48.702;8.884;2023-05-23T15:33:07;27.50;99.90
74822;DHT22;63353;48.702;8.884;2023-05-23T15:35:33;28.00;99.90
74822;DHT22;63353;48.702;8.884;2023-05-23T15:37:59;26.10;99.90
74822;DHT22;63353;48.702;8.884;2023-05-23T15:40:25;24.20;99.90
74822;DHT22;63353;48.702;8.884;2023-05-23T15:43:01;23.00;99.90
74822;DHT22;63353;48.702;8.884;2023-05-23T15:45:29;23.20;99.90
74822;DHT22;63353;48.702;8.884;2023-05-23T15:47:55;23.30;99.90
74822;DHT22;63353;48.702;8.884;2023-05-23T15:50:21;23.60;99.90
74822;DHT22;63353;48.702;8.884;2023-05-23T15:52:47;24.50;99.90
74822;DHT22;63353;48.702;8.884;2023-05-23T15:55:12;24.90;99.90
74822;DHT22;63353;48.702;8.884;2023-05-23T15:57:38;25.00;99.90